Time;durP1;ratioP1;P1;durP2;ratioP2;P2;SDS_P1;SDS_P2;PMS_P1;PMS_P2;Temp;Humidity;BMP_temperature;BMP_pressure;BME280_temperature;BME280_humidity;BME280_pressure;Samples;Min_cycle;Max_cycle;Signal;HPM_P1;HPM_P2
2022/01/17 00:01:30;;;;;;;;;;;23.10;23.10;;;;;;5121464;27;20030;-47
2022/01/17 00:03:56;;;;;;;;;;;23.10;23.20;;;;;;5125717;27;19984;-46
2022/01/17 00:06:22;;;;;;;;;;;23.10;23.20;;;;;;5121766;27;20067;-46
2022/01/17 00:08:49;;;;;;;;;;;23.20;23.20;;;;;;5126919;27;19927;-50
2022/01/17 00:11:16;;;;;;;;;;;23.00;23.40;;;;;;5122434;27;20009;-51
2022/01/17 00:13:42;;;;;;;;;;;23.20;23.20;;;;;;5121638;27;19924;-45
2022/01/17 00:16:12;;;;;;;;;;;23.20;23.30;;;;;;5126944;27;19924;-47
2022/01/17 00:21:04;;;;;;;;;;;23.30;23.20;;;;;;5119840;27;19934;-46
2022/01/17 00:23:30;;;;;;;;;;;23.30;23.30;;;;;;5126583;27;19975;-47
2022/01/17 00:25:55;;;;;;;;;;;23.30;23.30;;;;;;5121351;27;20399;-51
2022/01/17 00:28:21;;;;;;;;;;;23.30;23.20;;;;;;5121257;27;19942;-50
2022/01/17 00:30:47;;;;;;;;;;;23.30;23.30;;;;;;5126655;27;19927;-47
2022/01/17 00:33:13;;;;;;;;;;;23.30;23.30;;;;;;5121498;27;20371;-46
2022/01/17 00:35:38;;;;;;;;;;;23.30;23.30;;;;;;5126843;27;19923;-53
2022/01/17 00:38:04;;;;;;;;;;;23.20;23.40;;;;;;5121006;27;19927;-51
2022/01/17 00:40:30;;;;;;;;;;;23.20;23.50;;;;;;5119624;27;19927;-52
2022/01/17 00:42:56;;;;;;;;;;;23.10;23.50;;;;;;5126442;27;21235;-50
2022/01/17 00:45:24;;;;;;;;;;;23.10;23.50;;;;;;5121132;27;19932;-52
2022/01/17 00:47:51;;;;;;;;;;;23.00;23.60;;;;;;5120981;27;19978;-50
2022/01/17 00:50:16;;;;;;;;;;;23.00;23.70;;;;;;5125718;27;20293;-50
2022/01/17 00:52:42;;;;;;;;;;;22.90;23.70;;;;;;5121537;27;19928;-48
2022/01/17 00:55:08;;;;;;;;;;;22.90;23.70;;;;;;5126721;27;19928;-48
2022/01/17 00:57:34;;;;;;;;;;;22.90;23.80;;;;;;5120109;27;20288;-48
2022/01/17 01:00:00;;;;;;;;;;;22.90;23.80;;;;;;5120187;27;19977;-47
2022/01/17 01:02:25;;;;;;;;;;;23.10;23.70;;;;;;5126294;28;19927;-48
2022/01/17 01:04:51;;;;;;;;;;;23.00;23.80;;;;;;5120787;28;20427;-47
2022/01/17 01:07:17;;;;;;;;;;;23.00;23.80;;;;;;5120950;28;20504;-50
2022/01/17 01:09:55;;;;;;;;;;;23.10;23.70;;;;;;5126459;28;19924;-47
2022/01/17 01:12:21;;;;;;;;;;;23.10;23.70;;;;;;5121053;28;20009;-48
2022/01/17 01:14:47;;;;;;;;;;;23.10;23.70;;;;;;5121624;28;19930;-56
2022/01/17 01:17:30;;;;;;;;;;;23.00;23.80;;;;;;5124241;28;19928;-47
2022/01/17 01:20:05;;;;;;;;;;;23.10;23.70;;;;;;5120960;28;20295;-48
2022/01/17 01:28:00;;;;;;;;;;;23.00;23.80;;;;;;5120889;28;19996;-48
2022/01/17 01:30:28;;;;;;;;;;;23.10;23.80;;;;;;5120921;28;20446;-46
2022/01/17 01:32:57;;;;;;;;;;;23.10;23.80;;;;;;5126493;28;19976;-47
2022/01/17 01:35:25;;;;;;;;;;;23.10;23.80;;;;;;5118943;28;20390;-47
2022/01/17 01:37:51;;;;;;;;;;;23.10;23.80;;;;;;5125405;28;20022;-52
2022/01/17 01:40:17;;;;;;;;;;;23.10;23.90;;;;;;5121850;28;19927;-46
2022/01/17 01:42:43;;;;;;;;;;;23.10;23.80;;;;;;5120563;28;19931;-48
2022/01/17 01:45:12;;;;;;;;;;;23.20;23.70;;;;;;5126078;28;19924;-47
2022/01/17 01:47:37;;;;;;;;;;;23.00;23.80;;;;;;5120763;28;19927;-47
2022/01/17 01:50:04;;;;;;;;;;;23.00;23.80;;;;;;5120472;28;20242;-46
2022/01/17 01:52:30;;;;;;;;;;;23.10;23.80;;;;;;5125452;28;19932;-47
2022/01/17 01:54:55;;;;;;;;;;;23.10;23.80;;;;;;5119187;28;19976;-46
2022/01/17 01:57:21;;;;;;;;;;;23.00;23.80;;;;;;5103080;28;19930;-54
2022/01/17 01:59:47;;;;;;;;;;;23.10;23.70;;;;;;5125034;28;20332;-48
2022/01/17 02:02:13;;;;;;;;;;;23.10;23.70;;;;;;5122664;27;19924;-47
2022/01/17 02:04:39;;;;;;;;;;;23.10;23.80;;;;;;5129784;27;19972;-47
2022/01/17 02:07:05;;;;;;;;;;;23.20;23.70;;;;;;5124412;27;19928;-46
2022/01/17 02:09:32;;;;;;;;;;;23.00;23.90;;;;;;5124221;27;19980;-45
2022/01/17 02:11:57;;;;;;;;;;;23.20;23.80;;;;;;5128060;27;20370;-47
2022/01/17 02:14:23;;;;;;;;;;;23.00;23.90;;;;;;5123614;27;19930;-47
2022/01/17 02:16:50;;;;;;;;;;;23.10;23.90;;;;;;5124063;27;19988;-48
2022/01/17 02:19:21;;;;;;;;;;;23.10;23.80;;;;;;5129280;27;20026;-50
2022/01/17 02:21:47;;;;;;;;;;;23.00;23.90;;;;;;5123436;27;20029;-45
2022/01/17 02:24:16;;;;;;;;;;;23.20;23.90;;;;;;5129492;27;19924;-47
2022/01/17 02:26:43;;;;;;;;;;;23.20;23.80;;;;;;5124213;27;19949;-47
2022/01/17 02:29:08;;;;;;;;;;;23.20;23.70;;;;;;5123570;27;19928;-47
2022/01/17 02:31:34;;;;;;;;;;;23.20;23.70;;;;;;5127322;27;19931;-47
2022/01/17 02:34:01;;;;;;;;;;;23.20;23.70;;;;;;5123394;27;19980;-47
2022/01/17 02:36:27;;;;;;;;;;;23.20;23.70;;;;;;5123462;27;19930;-47
2022/01/17 02:38:53;;;;;;;;;;;23.30;23.70;;;;;;5128905;27;20366;-46
2022/01/17 02:41:18;;;;;;;;;;;23.10;23.80;;;;;;5123544;27;20451;-50
2022/01/17 02:43:46;;;;;;;;;;;23.10;23.90;;;;;;5126517;27;19930;-52
2022/01/17 02:48:39;;;;;;;;;;;23.10;23.90;;;;;;5122087;27;19923;-50
2022/01/17 02:51:04;;;;;;;;;;;23.20;24.00;;;;;;5128111;27;20410;-45
2022/01/17 02:53:30;;;;;;;;;;;23.30;23.90;;;;;;5123276;27;19972;-53
2022/01/17 02:55:57;;;;;;;;;;;23.00;24.10;;;;;;5102929;27;20299;-53
2022/01/17 02:58:23;;;;;;;;;;;23.00;24.20;;;;;;5128650;27;19924;-53
2022/01/17 03:00:50;;;;;;;;;;;22.80;24.30;;;;;;5123390;27;20301;-53
2022/01/17 03:03:16;;;;;;;;;;;22.90;24.30;;;;;;5123401;27;19924;-53
2022/01/17 03:05:42;;;;;;;;;;;22.80;24.40;;;;;;5128626;27;20294;-51
2022/01/17 03:08:08;;;;;;;;;;;22.80;24.50;;;;;;5121317;27;20166;-51
2022/01/17 03:13:13;;;;;;;;;;;22.70;24.60;;;;;;5121852;27;20014;-53
2022/01/17 03:15:39;;;;;;;;;;;22.70;24.60;;;;;;5122604;27;19927;-48
2022/01/17 03:18:05;;;;;;;;;;;22.60;24.70;;;;;;5128246;27;20080;-50
2022/01/17 03:20:31;;;;;;;;;;;22.80;24.60;;;;;;5122801;27;20028;-51
2022/01/17 03:22:56;;;;;;;;;;;22.70;24.60;;;;;;5122710;27;19927;-51
2022/01/17 03:25:22;;;;;;;;;;;22.70;24.60;;;;;;5127241;27;19923;-53
2022/01/17 03:27:48;;;;;;;;;;;22.80;24.50;;;;;;5121441;27;19930;-49
2022/01/17 03:30:14;;;;;;;;;;;22.80;24.40;;;;;;5124147;27;19970;-54
2022/01/17 03:32:39;;;;;;;;;;;22.80;24.50;;;;;;5108004;27;20386;-53
2022/01/17 03:35:05;;;;;;;;;;;22.70;24.60;;;;;;5122342;27;19931;-50
2022/01/17 03:37:31;;;;;;;;;;;22.80;24.50;;;;;;5128103;27;19931;-49
2022/01/17 03:39:57;;;;;;;;;;;22.80;24.50;;;;;;5122630;27;20374;-50
2022/01/17 03:42:24;;;;;;;;;;;22.80;24.50;;;;;;5122414;27;19927;-51
2022/01/17 03:44:50;;;;;;;;;;;22.70;24.70;;;;;;5125870;27;19923;-53
2022/01/17 03:47:16;;;;;;;;;;;22.90;24.70;;;;;;5122224;27;20018;-48
2022/01/17 03:49:41;;;;;;;;;;;22.80;24.80;;;;;;5122081;27;20193;-48
2022/01/17 03:52:07;;;;;;;;;;;22.80;24.90;;;;;;5127267;27;20430;-49
2022/01/17 03:54:34;;;;;;;;;;;22.80;25.00;;;;;;5121991;27;19927;-50
2022/01/17 03:56:59;;;;;;;;;;;22.80;25.00;;;;;;5127475;27;19937;-48
2022/01/17 03:59:25;;;;;;;;;;;22.80;25.10;;;;;;5122021;27;19924;-51
2022/01/17 04:01:51;;;;;;;;;;;22.80;25.30;;;;;;5121776;27;19949;-51
2022/01/17 04:04:17;;;;;;;;;;;22.80;25.40;;;;;;5125847;27;19928;-51
2022/01/17 04:06:42;;;;;;;;;;;22.80;25.50;;;;;;5121912;27;20367;-50
2022/01/17 04:09:08;;;;;;;;;;;22.80;25.50;;;;;;5121765;27;20258;-51
2022/01/17 04:11:34;;;;;;;;;;;22.80;25.60;;;;;;5126990;27;19932;-48
2022/01/17 04:14:00;;;;;;;;;;;22.80;25.80;;;;;;5121624;27;19924;-47
2022/01/17 04:16:26;;;;;;;;;;;22.80;25.80;;;;;;5127377;27;19949;-50
2022/01/17 04:18:54;;;;;;;;;;;22.80;25.90;;;;;;5121789;27;19930;-50
2022/01/17 04:21:20;;;;;;;;;;;22.80;25.90;;;;;;5120385;27;20050;-47
2022/01/17 04:23:45;;;;;;;;;;;22.80;25.90;;;;;;5126213;27;19923;-47
2022/01/17 04:26:11;;;;;;;;;;;22.80;26.00;;;;;;5121695;27;20336;-47
2022/01/17 04:28:37;;;;;;;;;;;22.80;26.00;;;;;;5121306;27;19927;-46
2022/01/17 04:31:02;;;;;;;;;;;22.80;26.10;;;;;;5126609;27;20216;-50
2022/01/17 04:33:28;;;;;;;;;;;22.80;26.10;;;;;;5121459;27;19927;-50
2022/01/17 04:35:54;;;;;;;;;;;22.80;26.10;;;;;;5126582;27;19927;-55
2022/01/17 04:38:20;;;;;;;;;;;22.80;26.20;;;;;;5117872;27;19930;-50
2022/01/17 04:40:47;;;;;;;;;;;22.90;26.20;;;;;;5119753;27;19935;-46
2022/01/17 04:43:19;;;;;;;;;;;22.80;26.30;;;;;;5126596;27;20271;-49
2022/01/17 04:45:45;;;;;;;;;;;22.80;26.30;;;;;;5121182;27;20323;-51
2022/01/17 04:48:11;;;;;;;;;;;22.90;26.30;;;;;;5121195;27;19923;-50
2022/01/17 04:50:37;;;;;;;;;;;22.80;26.40;;;;;;5126569;27;19930;-50
2022/01/17 04:53:03;;;;;;;;;;;22.80;26.30;;;;;;5121183;27;20004;-48
2022/01/17 04:55:29;;;;;;;;;;;22.80;26.40;;;;;;5121186;27;19923;-49
2022/01/17 04:57:57;;;;;;;;;;;22.90;26.30;;;;;;5125779;27;19927;-50
2022/01/17 05:00:23;;;;;;;;;;;22.90;26.30;;;;;;5119923;27;19930;-49
2022/01/17 05:02:49;;;;;;;;;;;22.90;26.30;;;;;;5126432;28;19924;-47
2022/01/17 05:05:15;;;;;;;;;;;22.90;26.30;;;;;;5101563;28;19927;-49
2022/01/17 05:07:41;;;;;;;;;;;22.80;26.40;;;;;;5120893;28;20283;-50
2022/01/17 05:10:08;;;;;;;;;;;22.80;26.60;;;;;;5126450;28;20305;-50
2022/01/17 05:12:34;;;;;;;;;;;22.90;26.60;;;;;;5121035;28;19979;-45
2022/01/17 05:15:00;;;;;;;;;;;22.80;26.70;;;;;;5121182;28;20213;-47
2022/01/17 05:19:57;;;;;;;;;;;22.90;26.50;;;;;;5120706;28;19972;-47
2022/01/17 05:22:24;;;;;;;;;;;22.90;26.50;;;;;;5124971;28;19923;-57
2022/01/17 05:24:50;;;;;;;;;;;22.90;26.60;;;;;;5122672;28;20034;-47
2022/01/17 05:27:16;;;;;;;;;;;23.00;26.50;;;;;;5120563;28;19923;-47
2022/01/17 05:29:41;;;;;;;;;;;22.90;26.40;;;;;;5126314;28;20014;-47
2022/01/17 05:32:07;;;;;;;;;;;22.90;26.40;;;;;;5120696;28;20375;-47
2022/01/17 05:34:40;;;;;;;;;;;23.00;26.40;;;;;;5120252;28;19984;-48
2022/01/17 05:37:06;;;;;;;;;;;22.90;26.40;;;;;;5127056;27;19941;-47
2022/01/17 05:39:32;;;;;;;;;;;22.90;26.40;;;;;;5124755;27;19930;-46
2022/01/17 05:41:58;;;;;;;;;;;22.90;26.40;;;;;;5106264;27;19977;-46
2022/01/17 05:44:24;;;;;;;;;;;23.00;26.30;;;;;;5130133;27;20421;-46
2022/01/17 05:46:50;;;;;;;;;;;23.00;26.20;;;;;;5124481;27;20340;-46
2022/01/17 05:49:16;;;;;;;;;;;23.00;26.10;;;;;;5129965;27;20392;-47
2022/01/17 05:51:41;;;;;;;;;;;23.10;26.10;;;;;;5124406;27;19959;-44
2022/01/17 05:54:07;;;;;;;;;;;23.10;26.10;;;;;;5122901;27;19931;-48
2022/01/17 05:56:33;;;;;;;;;;;23.10;26.10;;;;;;5129524;27;19931;-47
2022/01/17 05:58:59;;;;;;;;;;;23.10;26.10;;;;;;5124393;27;19932;-47
2022/01/17 06:01:24;;;;;;;;;;;23.20;26.00;;;;;;5124274;27;20185;-45
2022/01/17 06:03:50;;;;;;;;;;;23.30;25.80;;;;;;5129610;27;20378;-48
2022/01/17 06:06:16;;;;;;;;;;;23.30;25.90;;;;;;5104242;27;19942;-49
2022/01/17 06:08:42;;;;;;;;;;;23.10;26.00;;;;;;5129870;27;19930;-48
2022/01/17 06:11:08;;;;;;;;;;;23.20;26.10;;;;;;5124129;27;19928;-50
2022/01/17 06:13:33;;;;;;;;;;;23.20;26.10;;;;;;5122493;27;19923;-47
2022/01/17 06:15:59;;;;;;;;;;;23.20;26.10;;;;;;5129746;27;19923;-47
2022/01/17 06:18:25;;;;;;;;;;;23.10;26.20;;;;;;5123876;27;19938;-45
2022/01/17 06:20:51;;;;;;;;;;;23.20;26.00;;;;;;5123976;27;20173;-47
2022/01/17 06:23:16;;;;;;;;;;;23.20;25.90;;;;;;5129387;27;19927;-44
2022/01/17 06:25:42;;;;;;;;;;;23.30;25.90;;;;;;5124140;27;19924;-47
2022/01/17 06:28:08;;;;;;;;;;;23.30;25.90;;;;;;5129422;27;19924;-50
2022/01/17 06:30:34;;;;;;;;;;;23.30;26.00;;;;;;5123176;27;20319;-49
2022/01/17 06:33:02;;;;;;;;;;;23.20;26.10;;;;;;5122563;27;19924;-48
2022/01/17 06:35:28;;;;;;;;;;;23.20;26.00;;;;;;5129047;27;19935;-49
2022/01/17 06:37:54;;;;;;;;;;;23.30;25.90;;;;;;5123602;27;19923;-47
2022/01/17 06:40:19;;;;;;;;;;;23.30;25.90;;;;;;5123473;27;20036;-47
2022/01/17 06:42:45;;;;;;;;;;;23.30;25.90;;;;;;5128829;27;20298;-46
2022/01/17 06:45:13;;;;;;;;;;;23.20;26.00;;;;;;5123622;27;19931;-46
2022/01/17 06:47:39;;;;;;;;;;;23.20;26.00;;;;;;5125248;27;20298;-51
2022/01/17 06:50:05;;;;;;;;;;;23.30;25.90;;;;;;5125689;27;19923;-47
2022/01/17 06:52:31;;;;;;;;;;;23.30;25.70;;;;;;5123371;27;20014;-53
2022/01/17 06:54:57;;;;;;;;;;;23.30;25.90;;;;;;5128730;27;20301;-53
2022/01/17 06:57:23;;;;;;;;;;;23.20;26.10;;;;;;5123188;27;19923;-49
2022/01/17 06:59:49;;;;;;;;;;;23.20;26.10;;;;;;5123262;27;19934;-51
2022/01/17 07:02:15;;;;;;;;;;;23.20;26.10;;;;;;5128601;27;19923;-49
2022/01/17 07:04:40;;;;;;;;;;;23.10;26.10;;;;;;5123319;27;19930;-49
2022/01/17 07:07:06;;;;;;;;;;;23.10;26.10;;;;;;5122686;27;19994;-50
2022/01/17 07:09:32;;;;;;;;;;;23.10;26.00;;;;;;5126730;27;20455;-49
2022/01/17 07:12:01;;;;;;;;;;;23.00;26.10;;;;;;5122812;27;19935;-47
2022/01/17 07:14:27;;;;;;;;;;;23.30;25.90;;;;;;5128215;27;19923;-46
2022/01/17 07:16:52;;;;;;;;;;;23.20;26.00;;;;;;5122536;27;20421;-48
2022/01/17 07:19:18;;;;;;;;;;;23.30;26.00;;;;;;5122736;27;19934;-45
2022/01/17 07:21:44;;;;;;;;;;;23.20;26.10;;;;;;5109887;27;19923;-48
2022/01/17 07:24:10;;;;;;;;;;;23.30;25.90;;;;;;5122955;27;20379;-52
2022/01/17 07:26:35;;;;;;;;;;;23.20;26.10;;;;;;5100714;27;19923;-52
2022/01/17 07:29:02;;;;;;;;;;;23.20;26.10;;;;;;5127428;27;19931;-46
2022/01/17 07:31:28;;;;;;;;;;;23.10;26.20;;;;;;5122702;27;19929;-47
2022/01/17 07:33:54;;;;;;;;;;;23.20;26.10;;;;;;5127895;27;20286;-49
2022/01/17 07:36:20;;;;;;;;;;;23.20;26.10;;;;;;5122408;27;19931;-48
2022/01/17 07:38:46;;;;;;;;;;;23.20;26.00;;;;;;5122799;27;19934;-45
2022/01/17 07:41:12;;;;;;;;;;;23.20;26.10;;;;;;5127965;27;19934;-45
2022/01/17 07:43:38;;;;;;;;;;;23.20;26.00;;;;;;5122183;27;19923;-47
2022/01/17 07:46:17;;;;;;;;;;;23.30;25.90;;;;;;5120484;27;19950;-48
2022/01/17 07:48:57;;;;;;;;;;;23.30;25.90;;;;;;5107992;27;19938;-50
2022/01/17 07:51:23;;;;;;;;;;;23.30;26.00;;;;;;5121806;27;19975;-46
2022/01/17 07:53:48;;;;;;;;;;;23.30;26.00;;;;;;5121775;27;20653;-52
2022/01/17 07:56:14;;;;;;;;;;;23.30;25.90;;;;;;5127496;27;19923;-49
2022/01/17 07:58:41;;;;;;;;;;;23.30;25.80;;;;;;5121906;27;19939;-49
2022/01/17 08:01:07;;;;;;;;;;;23.20;25.90;;;;;;5125676;27;20044;-53
2022/01/17 08:03:33;;;;;;;;;;;23.20;25.90;;;;;;5122548;27;19927;-50
2022/01/17 08:05:59;;;;;;;;;;;23.20;26.00;;;;;;5121312;27;19932;-50
2022/01/17 08:08:25;;;;;;;;;;;23.20;25.90;;;;;;5127170;27;19927;-52
2022/01/17 08:10:51;;;;;;;;;;;23.00;26.10;;;;;;5121543;27;19927;-50
2022/01/17 08:13:18;;;;;;;;;;;23.20;25.90;;;;;;5120775;27;19923;-51
2022/01/17 08:15:45;;;;;;;;;;;23.30;25.80;;;;;;5126968;27;20022;-48
2022/01/17 08:18:11;;;;;;;;;;;23.10;26.00;;;;;;5121721;27;19927;-49
2022/01/17 08:20:37;;;;;;;;;;;23.30;25.70;;;;;;5121510;27;20471;-53
2022/01/17 08:23:03;;;;;;;;;;;23.30;25.80;;;;;;5124829;27;19992;-48
2022/01/17 08:25:29;;;;;;;;;;;23.30;25.80;;;;;;5101347;28;19992;-46
2022/01/17 08:27:54;;;;;;;;;;;23.20;25.80;;;;;;5126907;27;19930;-52
2022/01/17 08:30:20;;;;;;;;;;;23.30;25.80;;;;;;5121279;27;20021;-52
2022/01/17 08:32:46;;;;;;;;;;;23.20;26.00;;;;;;5121383;27;19927;-48
2022/01/17 08:35:12;;;;;;;;;;;23.30;25.90;;;;;;5127000;27;19927;-47
2022/01/17 08:37:38;;;;;;;;;;;23.20;26.00;;;;;;5121418;27;20267;-48
2022/01/17 08:40:04;;;;;;;;;;;23.20;26.00;;;;;;5120524;27;19923;-53
2022/01/17 08:42:30;;;;;;;;;;;23.30;25.90;;;;;;5125572;27;19923;-49
2022/01/17 08:44:56;;;;;;;;;;;23.20;26.00;;;;;;5121203;27;19945;-48
2022/01/17 08:47:21;;;;;;;;;;;23.30;25.80;;;;;;5126387;27;19959;-49
2022/01/17 08:49:48;;;;;;;;;;;23.30;25.80;;;;;;5121028;27;19923;-50
2022/01/17 08:52:15;;;;;;;;;;;23.20;25.90;;;;;;5121475;27;20388;-51
2022/01/17 08:54:41;;;;;;;;;;;23.10;25.90;;;;;;5126693;27;20013;-53
2022/01/17 08:57:07;;;;;;;;;;;23.20;25.80;;;;;;5121197;27;19924;-53
2022/01/17 08:59:33;;;;;;;;;;;23.00;26.00;;;;;;5119079;27;19958;-52
2022/01/17 09:01:58;;;;;;;;;;;23.10;26.00;;;;;;5126293;27;19928;-51
2022/01/17 09:04:24;;;;;;;;;;;23.10;25.90;;;;;;5121099;28;19948;-51
2022/01/17 09:06:50;;;;;;;;;;;23.00;25.90;;;;;;5126543;28;19934;-50
2022/01/17 09:09:19;;;;;;;;;;;23.10;25.90;;;;;;5120927;28;20427;-53
2022/01/17 09:11:44;;;;;;;;;;;23.10;26.10;;;;;;5123037;27;19923;-53
2022/01/17 09:14:10;;;;;;;;;;;23.10;26.10;;;;;;5130692;27;19923;-52
2022/01/17 09:16:36;;;;;;;;;;;22.90;26.30;;;;;;5124821;27;19923;-51
2022/01/17 09:19:02;;;;;;;;;;;23.00;26.30;;;;;;5123562;27;20042;-49
2022/01/17 09:21:28;;;;;;;;;;;23.00;26.30;;;;;;5130350;27;20004;-51
2022/01/17 09:23:57;;;;;;;;;;;23.10;26.20;;;;;;5124953;27;19931;-52
2022/01/17 09:26:25;;;;;;;;;;;23.10;26.20;;;;;;5126093;27;20393;-56
2022/01/17 09:28:54;;;;;;;;;;;23.00;26.20;;;;;;5130271;27;19923;-49
2022/01/17 09:31:19;;;;;;;;;;;23.00;26.30;;;;;;5124919;27;19923;-49
2022/01/17 09:33:45;;;;;;;;;;;23.10;26.30;;;;;;5149780;27;19953;-47
2022/01/17 09:36:11;;;;;;;;;;;23.20;26.30;;;;;;5143772;27;19954;-47
2022/01/17 09:38:37;;;;;;;;;;;23.20;26.20;;;;;;5145171;27;19923;-46
2022/01/17 09:41:03;;;;;;;;;;;23.30;26.10;;;;;;5150665;27;19953;-47
2022/01/17 09:43:28;;;;;;;;;;;23.30;26.10;;;;;;5126109;27;19950;-46
2022/01/17 09:45:55;;;;;;;;;;;23.30;26.00;;;;;;5144977;27;20115;-51
2022/01/17 09:48:23;;;;;;;;;;;23.30;26.00;;;;;;5150583;27;19948;-53
2022/01/17 09:51:03;;;;;;;;;;;23.30;26.00;;;;;;5145159;27;20378;-54
2022/01/17 09:53:29;;;;;;;;;;;23.20;26.00;;;;;;5146042;27;19923;-59
2022/01/17 09:55:58;;;;;;;;;;;23.00;26.20;;;;;;5128784;27;19923;-55
2022/01/17 09:58:24;;;;;;;;;;;22.90;26.30;;;;;;5144973;27;19923;-52
2022/01/17 10:00:49;;;;;;;;;;;23.00;26.10;;;;;;5150260;27;19930;-52
2022/01/17 10:03:18;;;;;;;;;;;23.00;26.20;;;;;;5126131;27;21244;-53
2022/01/17 10:05:44;;;;;;;;;;;23.00;26.10;;;;;;5144850;27;20046;-55
2022/01/17 10:08:10;;;;;;;;;;;23.00;26.20;;;;;;5131827;27;19923;-53
2022/01/17 10:10:49;;;;;;;;;;;23.00;26.00;;;;;;5144905;27;19994;-52
2022/01/17 10:13:20;;;;;;;;;;;23.00;26.00;;;;;;5142519;27;19927;-53
2022/01/17 10:15:59;;;;;;;;;;;23.00;26.10;;;;;;5149978;27;20014;-53
2022/01/17 10:18:46;;;;;;;;;;;23.20;26.00;;;;;;5144509;27;20433;-52
2022/01/17 10:21:20;;;;;;;;;;;23.10;25.90;;;;;;5144265;27;19927;-52
2022/01/17 10:24:21;;;;;;;;;;;23.10;25.70;;;;;;5131291;27;20229;-53
2022/01/17 10:34:57;;;;;;;;;;;23.20;25.50;;;;;;5149693;27;19923;-54
2022/01/17 10:37:27;;;;;;;;;;;23.30;25.30;;;;;;5144138;27;19923;-54
2022/01/17 10:39:57;;;;;;;;;;;23.20;25.30;;;;;;5147311;27;19930;-58
2022/01/17 10:42:23;;;;;;;;;;;23.30;25.30;;;;;;5148358;27;19923;-54
2022/01/17 10:44:49;;;;;;;;;;;23.20;25.40;;;;;;5143962;27;20446;-55
2022/01/17 10:47:24;;;;;;;;;;;23.20;25.40;;;;;;5149572;27;19927;-50
2022/01/17 10:49:51;;;;;;;;;;;23.20;25.30;;;;;;5142363;27;19937;-51
2022/01/17 10:52:26;;;;;;;;;;;23.20;25.30;;;;;;5143757;27;20289;-49
2022/01/17 10:54:56;;;;;;;;;;;23.30;25.20;;;;;;5149201;27;20643;-49
2022/01/17 10:57:22;;;;;;;;;;;23.20;25.20;;;;;;5143644;27;19923;-53
2022/01/17 10:59:51;;;;;;;;;;;23.30;25.20;;;;;;5143649;27;19946;-54
2022/01/17 11:02:17;;;;;;;;;;;23.30;25.30;;;;;;5149249;27;19933;-55
2022/01/17 11:04:43;;;;;;;;;;;23.20;25.50;;;;;;5143744;27;20392;-52
2022/01/17 11:07:09;;;;;;;;;;;23.10;25.50;;;;;;5124277;27;20331;-55
2022/01/17 11:09:41;;;;;;;;;;;23.00;25.70;;;;;;5147266;27;19930;-53
2022/01/17 11:12:11;;;;;;;;;;;23.10;25.70;;;;;;5143400;27;19933;-52
2022/01/17 11:14:37;;;;;;;;;;;23.10;25.70;;;;;;5149160;27;19923;-51
2022/01/17 11:17:15;;;;;;;;;;;23.00;25.80;;;;;;5143540;27;19922;-53
2022/01/17 11:22:27;;;;;;;;;;;23.10;25.70;;;;;;5131558;27;19929;-56
2022/01/17 11:24:53;;;;;;;;;;;23.00;25.80;;;;;;5127201;27;19923;-52
2022/01/17 11:27:18;;;;;;;;;;;23.10;25.80;;;;;;5141326;27;19923;-50
2022/01/17 11:29:44;;;;;;;;;;;23.20;25.70;;;;;;5148607;27;20374;-49
2022/01/17 11:32:10;;;;;;;;;;;23.10;25.80;;;;;;5123904;27;19980;-49
2022/01/17 11:34:36;;;;;;;;;;;23.20;25.80;;;;;;5142102;27;19923;-48
2022/01/17 11:37:01;;;;;;;;;;;23.20;25.80;;;;;;5148581;27;19923;-48
2022/01/17 11:39:27;;;;;;;;;;;23.20;25.70;;;;;;5142867;27;20362;-47
2022/01/17 11:41:53;;;;;;;;;;;23.20;25.80;;;;;;5144858;27;19923;-55
2022/01/17 11:44:24;;;;;;;;;;;23.20;25.80;;;;;;5146332;27;19934;-52
2022/01/17 11:46:52;;;;;;;;;;;23.20;25.90;;;;;;5123015;27;19923;-52
2022/01/17 11:49:31;;;;;;;;;;;23.20;25.90;;;;;;5148162;27;19927;-52
2022/01/17 11:51:57;;;;;;;;;;;23.20;26.10;;;;;;5143726;27;19937;-51
2022/01/17 11:54:23;;;;;;;;;;;23.20;26.00;;;;;;5124103;27;19923;-53
2022/01/17 11:56:50;;;;;;;;;;;23.20;26.10;;;;;;5147910;27;20880;-51
2022/01/17 11:59:23;;;;;;;;;;;23.20;26.10;;;;;;5142708;27;20037;-55
2022/01/17 12:02:08;;;;;;;;;;;23.20;26.10;;;;;;5142534;27;20137;-49
2022/01/17 12:04:34;;;;;;;;;;;23.30;26.10;;;;;;5146008;27;19945;-51
2022/01/17 12:06:59;;;;;;;;;;;23.30;26.10;;;;;;5142159;27;19927;-51
2022/01/17 12:09:26;;;;;;;;;;;23.20;26.20;;;;;;5142236;27;20035;-51
2022/01/17 12:12:04;;;;;;;;;;;23.30;26.30;;;;;;5147860;27;20462;-58
2022/01/17 12:14:32;;;;;;;;;;;23.20;26.30;;;;;;5142305;27;19927;-50
2022/01/17 12:17:16;;;;;;;;;;;23.20;26.30;;;;;;5142420;27;19931;-53
2022/01/17 12:20:01;;;;;;;;;;;23.20;26.30;;;;;;5147931;27;20313;-49
2022/01/17 12:22:27;;;;;;;;;;;23.30;26.20;;;;;;5140272;27;20025;-51
2022/01/17 12:24:53;;;;;;;;;;;23.20;26.10;;;;;;5123441;27;20396;-55
2022/01/17 12:27:19;;;;;;;;;;;23.20;26.10;;;;;;5147481;27;19923;-59
2022/01/17 12:30:00;;;;;;;;;;;23.20;26.00;;;;;;5141829;27;19931;-54
2022/01/17 12:32:26;;;;;;;;;;;23.20;26.00;;;;;;5123329;27;20016;-53
2022/01/17 12:34:58;;;;;;;;;;;23.20;26.00;;;;;;5147755;27;19937;-51
2022/01/17 12:37:36;;;;;;;;;;;23.20;26.00;;;;;;5142105;27;20297;-53
2022/01/17 12:40:09;;;;;;;;;;;23.30;25.90;;;;;;5140916;27;20370;-54
2022/01/17 12:42:48;;;;;;;;;;;23.20;25.90;;;;;;5146528;27;19927;-53
2022/01/17 12:45:18;;;;;;;;;;;23.20;25.80;;;;;;5141604;27;19934;-50
2022/01/17 12:47:45;;;;;;;;;;;23.20;25.80;;;;;;5142333;27;19923;-58
2022/01/17 12:50:10;;;;;;;;;;;23.20;25.80;;;;;;5147043;27;20326;-52
2022/01/17 12:52:35;;;;;;;;;;;23.20;25.80;;;;;;5141926;27;19907;-51
2022/01/17 12:55:03;;;;;;;;;;;23.20;25.80;;;;;;5147266;27;19938;-51
2022/01/17 12:57:29;;;;;;;;;;;23.30;25.70;;;;;;5141692;27;20225;-51
2022/01/17 12:59:54;;;;;;;;;;;23.30;25.50;;;;;;5140074;27;20182;-59
2022/01/17 13:02:20;;;;;;;;;;;23.30;25.60;;;;;;5147194;27;19930;-54
2022/01/17 13:04:48;;;;;;;;;;;23.20;25.60;;;;;;5141665;27;20064;-52
2022/01/17 13:07:14;;;;;;;;;;;23.20;25.50;;;;;;5141762;27;20137;-54
2022/01/17 13:09:40;;;;;;;;;;;23.30;25.30;;;;;;5138907;27;19927;-55
2022/01/17 13:12:07;;;;;;;;;;;23.20;25.30;;;;;;5121089;28;19940;-52
2022/01/17 13:14:34;;;;;;;;;;;23.20;25.40;;;;;;5126407;28;20398;-55
2022/01/17 13:16:59;;;;;;;;;;;23.10;25.40;;;;;;5119523;28;19983;-56
2022/01/17 13:19:25;;;;;;;;;;;23.00;25.40;;;;;;5119866;27;19928;-56
2022/01/17 13:21:51;;;;;;;;;;;23.10;25.30;;;;;;5126077;28;19924;-55
2022/01/17 13:24:36;;;;;;;;;;;23.10;25.40;;;;;;5120461;28;19930;-53
2022/01/17 13:27:09;;;;;;;;;;;23.20;25.10;;;;;;5120596;28;20349;-51
2022/01/17 13:29:53;;;;;;;;;;;23.30;25.00;;;;;;5126082;27;19937;-53
2022/01/17 13:32:19;;;;;;;;;;;23.20;25.00;;;;;;5120836;28;20031;-50
2022/01/17 13:34:45;;;;;;;;;;;23.10;25.10;;;;;;5120232;28;19923;-52
2022/01/17 13:37:15;;;;;;;;;;;23.00;25.10;;;;;;5124351;27;20364;-54
2022/01/17 13:39:40;;;;;;;;;;;23.20;24.90;;;;;;5120594;28;19923;-54
2022/01/17 13:42:07;;;;;;;;;;;23.20;24.90;;;;;;5120074;27;19932;-52
2022/01/17 13:44:33;;;;;;;;;;;23.10;24.90;;;;;;5125789;28;20340;-52
2022/01/17 13:47:06;;;;;;;;;;;23.20;24.80;;;;;;5120575;28;20345;-49
2022/01/17 13:49:38;;;;;;;;;;;23.30;24.70;;;;;;5124876;28;19927;-57
2022/01/17 13:52:04;;;;;;;;;;;23.30;24.50;;;;;;5124581;28;19928;-50
2022/01/17 13:54:30;;;;;;;;;;;23.20;24.60;;;;;;5118771;27;19933;-52
2022/01/17 13:56:56;;;;;;;;;;;23.20;24.50;;;;;;5126198;27;19987;-51
2022/01/17 13:59:23;;;;;;;;;;;23.20;24.50;;;;;;5124275;27;20029;-52
2022/01/17 14:01:49;;;;;;;;;;;23.30;24.30;;;;;;5124270;27;19926;-53
2022/01/17 14:04:16;;;;;;;;;;;23.30;24.20;;;;;;5129489;27;19946;-50
2022/01/17 14:06:42;;;;;;;;;;;23.30;24.30;;;;;;5124143;27;19948;-54
2022/01/17 14:09:08;;;;;;;;;;;23.20;24.30;;;;;;5124508;27;19924;-54
2022/01/17 14:11:39;;;;;;;;;;;23.20;24.30;;;;;;5129267;27;19991;-53
2022/01/17 14:14:05;;;;;;;;;;;23.20;24.30;;;;;;5122365;27;20006;-52
2022/01/17 14:16:31;;;;;;;;;;;23.20;24.30;;;;;;5111047;27;20298;-50
2022/01/17 14:19:07;;;;;;;;;;;23.20;24.20;;;;;;5123946;27;19934;-49
2022/01/17 14:21:37;;;;;;;;;;;23.30;24.10;;;;;;5123826;27;20027;-53
2022/01/17 14:24:18;;;;;;;;;;;23.30;24.20;;;;;;5129312;27;19929;-51
2022/01/17 14:26:48;;;;;;;;;;;23.30;24.10;;;;;;5123873;27;19927;-57
2022/01/17 14:29:15;;;;;;;;;;;23.30;24.20;;;;;;5123996;27;19974;-53
2022/01/17 14:31:42;;;;;;;;;;;23.10;24.30;;;;;;5126948;27;20847;-52
2022/01/17 14:34:08;;;;;;;;;;;23.30;24.10;;;;;;5123690;27;20017;-53
2022/01/17 14:36:34;;;;;;;;;;;23.20;24.10;;;;;;5123625;27;19950;-56
2022/01/17 14:39:01;;;;;;;;;;;23.30;24.00;;;;;;5128818;27;20406;-52
2022/01/17 14:41:33;;;;;;;;;;;23.20;24.10;;;;;;5123493;27;19927;-51
2022/01/17 14:44:13;;;;;;;;;;;23.20;24.10;;;;;;5123685;27;19930;-59